createdAt,value
2022-11-05T00:01:47.296Z,86.25
2022-11-05T00:04:33.115Z,83.45
2022-11-05T00:10:14.653Z,79.07
2022-11-05T00:12:59.889Z,76.60
2022-11-05T00:15:45.066Z,74.10
2022-11-05T00:18:11.668Z,77.18
2022-11-05T00:20:38.274Z,64.47
2022-11-05T00:23:24.881Z,65.88
2022-11-05T00:25:59.665Z,64.43
2022-11-05T00:28:28.455Z,63.00
2022-11-05T00:31:03.607Z,66.28
2022-11-05T00:33:30.466Z,61.83
2022-11-05T00:35:57.072Z,58.60
2022-11-05T00:38:23.863Z,56.20
2022-11-05T00:40:50.473Z,61.25
2022-11-05T00:43:35.644Z,59.45
2022-11-05T00:46:02.248Z,59.22
2022-11-05T00:48:47.595Z,62.15
2022-11-05T00:51:14.241Z,63.35
2022-11-05T00:53:40.855Z,65.50
2022-11-05T00:56:07.475Z,69.88
2022-11-05T00:58:34.193Z,69.35
2022-11-05T01:01:01.451Z,56.95
2022-11-05T01:03:33.406Z,63.55
2022-11-05T01:06:06.658Z,66.53
2022-11-05T01:08:33.239Z,62.15
2022-11-05T01:10:59.913Z,65.13
2022-11-05T01:13:29.292Z,65.05
2022-11-05T01:15:56.854Z,81.95
2022-11-05T01:18:24.285Z,66.88
2022-11-05T01:20:51.071Z,60.80
2022-11-05T01:23:17.794Z,68.57
2022-11-05T01:25:45.073Z,60.17
2022-11-05T01:28:11.744Z,55.72
2022-11-05T01:30:38.656Z,55.75
2022-11-05T01:33:05.548Z,64.88
2022-11-05T01:35:32.233Z,61.97
2022-11-05T01:37:58.961Z,63.97
2022-11-05T01:40:26.273Z,67.38
2022-11-05T01:42:52.936Z,79.60
2022-11-05T01:45:28.202Z,76.63
2022-11-05T01:48:00.001Z,86.65
2022-11-05T01:50:43.408Z,132.75
2022-11-05T01:53:18.894Z,103.00
2022-11-05T01:56:14.453Z,123.13
2022-11-05T01:58:56.823Z,65.88
2022-11-05T02:01:23.618Z,120.63
2022-11-05T02:03:52.069Z,83.07
2022-11-05T02:06:19.196Z,101.13
2022-11-05T02:09:03.681Z,83.15
2022-11-05T02:11:30.794Z,83.50
2022-11-05T02:13:57.455Z,77.03
2022-11-05T02:16:48.417Z,77.00
2022-11-05T02:19:33.694Z,78.55
2022-11-05T02:22:37.975Z,73.95
2022-11-05T02:25:16.527Z,74.28
2022-11-05T02:28:02.932Z,60.20
2022-11-05T02:30:53.728Z,65.20
2022-11-05T02:33:34.516Z,51.20
2022-11-05T02:36:14.953Z,52.38
2022-11-05T02:39:04.340Z,52.53
2022-11-05T02:41:40.139Z,51.80
2022-11-05T02:44:23.093Z,44.20
2022-11-05T02:47:18.016Z,45.55
2022-11-05T02:49:51.018Z,48.10
2022-11-05T02:52:38.170Z,48.42
2022-11-05T02:55:26.874Z,41.25
2022-11-05T02:57:53.516Z,46.33
2022-11-05T03:00:44.856Z,41.03
2022-11-05T03:03:23.670Z,39.00
2022-11-05T03:05:59.115Z,40.17
2022-11-05T03:08:39.104Z,38.17
2022-11-05T03:11:14.684Z,39.13
2022-11-05T03:13:47.039Z,43.15
2022-11-05T03:16:20.584Z,34.58
2022-11-05T03:19:02.228Z,32.55
2022-11-05T03:21:36.737Z,36.40
2022-11-05T03:24:10.726Z,30.98
2022-11-05T03:26:49.634Z,40.13
2022-11-05T03:29:26.564Z,43.63
2022-11-05T03:31:55.441Z,40.53
2022-11-05T03:34:27.036Z,40.42
2022-11-05T03:36:55.978Z,43.05
2022-11-05T03:39:28.663Z,43.13
2022-11-05T03:41:57.585Z,45.00
2022-11-05T03:44:28.033Z,42.85
2022-11-05T03:47:00.748Z,45.72
2022-11-05T03:49:32.972Z,48.50
2022-11-05T03:52:17.245Z,47.60
2022-11-05T03:54:44.312Z,48.00
2022-11-05T03:57:19.313Z,45.05
2022-11-05T03:59:48.680Z,50.50
2022-11-05T04:02:17.429Z,52.47
2022-11-05T04:04:44.399Z,58.83
2022-11-05T04:07:30.580Z,60.38
2022-11-05T04:10:15.848Z,65.03
2022-11-05T04:13:02.764Z,54.70
2022-11-05T04:15:29.803Z,74.60
2022-11-05T04:17:59.006Z,90.10
2022-11-05T04:20:44.691Z,78.85
2022-11-05T04:23:30.074Z,65.32
2022-11-05T04:25:56.680Z,67.72
2022-11-05T04:28:43.229Z,73.70
2022-11-05T04:31:09.942Z,61.22
2022-11-05T04:33:36.547Z,74.57
2022-11-05T04:36:03.226Z,70.30
2022-11-05T04:38:29.815Z,64.28
2022-11-05T04:41:12.860Z,56.65
2022-11-05T04:43:39.451Z,53.40
2022-11-05T04:46:06.135Z,62.15
2022-11-05T04:48:32.773Z,59.60
2022-11-05T04:50:59.401Z,54.95
2022-11-05T04:53:26.009Z,50.03
2022-11-05T04:55:52.683Z,64.00
2022-11-05T04:58:19.428Z,53.53
2022-11-05T05:00:46.081Z,52.55
2022-11-05T05:03:13.145Z,54.10
2022-11-05T05:05:39.953Z,60.28
2022-11-05T05:08:06.686Z,53.75
2022-11-05T05:10:33.267Z,54.38
2022-11-05T05:12:59.884Z,57.40
2022-11-05T05:15:26.480Z,66.75
2022-11-05T05:17:53.161Z,55.80
2022-11-05T05:20:38.589Z,56.58
2022-11-05T05:23:05.198Z,49.13
2022-11-05T05:25:31.844Z,58.72
2022-11-05T05:27:59.863Z,53.42
2022-11-05T05:30:26.506Z,57.72
2022-11-05T05:32:53.098Z,53.08
2022-11-05T05:35:19.710Z,59.42
2022-11-05T05:37:46.366Z,65.35
2022-11-05T05:40:12.996Z,87.35
2022-11-05T05:42:43.067Z,115.47
2022-11-05T05:45:11.241Z,81.13
2022-11-05T05:47:37.934Z,75.72
2022-11-05T05:50:05.101Z,71.90
2022-11-05T05:52:31.989Z,61.05
2022-11-05T05:54:58.628Z,63.15
2022-11-05T05:57:25.231Z,69.15
2022-11-05T05:59:51.804Z,59.85
2022-11-05T06:02:18.549Z,56.45
2022-11-05T06:04:45.193Z,44.15
2022-11-05T06:07:11.828Z,50.30
2022-11-05T06:09:38.483Z,38.10
2022-11-05T06:12:05.549Z,43.38
2022-11-05T06:14:32.177Z,42.47
2022-11-05T06:16:58.844Z,33.03
2022-11-05T06:19:25.459Z,46.03
2022-11-05T06:21:52.066Z,40.80
2022-11-05T06:24:18.674Z,46.55
2022-11-05T06:26:45.275Z,48.33
2022-11-05T06:29:11.919Z,43.55
2022-11-05T06:31:38.523Z,39.78
2022-11-05T06:34:05.239Z,42.55
2022-11-05T06:36:31.856Z,42.78
2022-11-05T06:38:58.420Z,42.03
2022-11-05T06:41:25.160Z,37.60
2022-11-05T06:43:51.745Z,43.22
2022-11-05T06:46:18.499Z,50.13
2022-11-05T06:48:45.143Z,51.75
2022-11-05T06:51:11.766Z,54.97
2022-11-05T06:53:38.378Z,48.97
2022-11-05T06:56:06.022Z,52.92
2022-11-05T06:58:32.941Z,49.72
2022-11-05T07:01:04.645Z,52.60
2022-11-05T07:03:32.271Z,54.47
2022-11-05T07:06:00.793Z,39.55
2022-11-05T07:08:32.365Z,39.67
2022-11-05T07:10:59.631Z,47.72
2022-11-05T07:13:27.182Z,33.88
2022-11-05T07:15:53.940Z,42.55
2022-11-05T07:18:20.523Z,41.97
2022-11-05T07:20:47.180Z,42.95
2022-11-05T07:23:15.068Z,41.50
2022-11-05T07:25:42.875Z,42.30
2022-11-05T07:28:10.214Z,45.65
2022-11-05T07:30:37.300Z,44.65
2022-11-05T07:33:04.093Z,35.95
2022-11-05T07:35:30.823Z,33.65
2022-11-05T07:37:57.599Z,47.42
2022-11-05T07:40:26.134Z,49.72
2022-11-05T07:42:54.931Z,50.75
2022-11-05T07:45:22.810Z,40.83
2022-11-05T07:47:51.317Z,42.67
2022-11-05T07:50:19.279Z,53.63
2022-11-05T07:52:46.588Z,45.55
2022-11-05T07:55:13.440Z,42.63
2022-11-05T07:57:44.914Z,47.47
2022-11-05T08:00:14.277Z,45.58
2022-11-05T08:02:42.012Z,50.40
2022-11-05T08:05:10.213Z,45.20
2022-11-05T08:07:36.985Z,46.60
2022-11-05T08:10:04.386Z,47.17
2022-11-05T08:12:31.955Z,46.75
2022-11-05T08:14:58.657Z,57.88
2022-11-05T08:17:25.411Z,69.45
2022-11-05T08:19:52.003Z,66.15
2022-11-05T08:22:18.712Z,71.80
2022-11-05T08:24:45.283Z,60.50
2022-11-05T08:27:11.916Z,58.72
2022-11-05T08:29:38.579Z,60.40
2022-11-05T08:32:05.311Z,50.67
2022-11-05T08:34:32.004Z,51.63
2022-11-05T08:37:00.944Z,46.50
2022-11-05T08:39:27.849Z,49.22
2022-11-05T08:41:54.893Z,56.90
2022-11-05T08:44:21.547Z,51.67
2022-11-05T08:46:48.311Z,30.98
2022-11-05T08:49:14.944Z,54.75
2022-11-05T08:51:41.828Z,54.33
2022-11-05T08:54:08.530Z,45.08
2022-11-05T08:56:35.240Z,65.47
2022-11-05T08:59:01.913Z,60.80
2022-11-05T09:01:28.615Z,69.68
2022-11-05T09:03:55.355Z,65.70
2022-11-05T09:06:22.207Z,68.40
2022-11-05T09:08:48.823Z,60.28
2022-11-05T09:11:15.572Z,68.63
2022-11-05T09:13:42.547Z,74.47
2022-11-05T09:16:19.874Z,67.15
2022-11-05T09:18:46.525Z,82.95
2022-11-05T09:21:13.265Z,80.68
2022-11-05T09:23:40.021Z,79.03
2022-11-05T09:26:06.780Z,71.80
2022-11-05T09:28:33.507Z,74.68
2022-11-05T09:31:00.764Z,70.13
2022-11-05T09:33:28.162Z,70.47
2022-11-05T09:35:54.864Z,68.25
2022-11-05T09:38:21.564Z,85.43
2022-11-05T09:41:15.369Z,64.88
2022-11-05T09:43:49.511Z,64.88
2022-11-05T09:46:41.892Z,63.33
2022-11-05T09:49:18.827Z,72.38
2022-11-05T09:51:45.475Z,71.35
2022-11-05T09:54:13.327Z,68.88
2022-11-05T09:56:41.379Z,62.50
2022-11-05T09:59:37.189Z,64.90
2022-11-05T10:02:28.347Z,67.70
2022-11-05T10:04:57.930Z,71.07
2022-11-05T10:07:27.167Z,65.32
2022-11-05T10:10:02.845Z,66.13
2022-11-05T10:12:34.359Z,63.75
2022-11-05T10:15:16.012Z,61.17
2022-11-05T10:17:46.742Z,62.65
2022-11-05T10:20:24.649Z,73.05
2022-11-05T10:22:56.608Z,61.17
2022-11-05T10:25:25.349Z,67.43
2022-11-05T10:27:54.358Z,60.05
2022-11-05T10:30:21.726Z,56.75
2022-11-05T10:32:48.831Z,58.97
2022-11-05T10:35:18.695Z,61.33
2022-11-05T10:37:46.843Z,55.88
2022-11-05T10:40:18.716Z,62.00
2022-11-05T10:43:03.258Z,55.08
2022-11-05T10:45:56.330Z,60.45
2022-11-05T10:48:43.999Z,56.80
2022-11-05T10:51:11.488Z,68.38
2022-11-05T10:53:39.272Z,56.70
2022-11-05T10:56:51.826Z,60.25
2022-11-05T10:59:29.959Z,67.38
2022-11-05T11:02:00.181Z,56.92
2022-11-05T11:04:32.354Z,65.28
2022-11-05T11:07:04.106Z,72.18
2022-11-05T11:09:32.671Z,62.70
2022-11-05T11:12:22.216Z,69.60
2022-11-05T11:15:23.668Z,58.75
2022-11-05T11:17:50.324Z,73.28
2022-11-05T14:08:42.957Z,47.50
2022-11-05T14:11:32.889Z,46.17
2022-11-05T14:14:03.470Z,36.97
2022-11-05T14:16:49.982Z,42.75
2022-11-05T14:19:19.709Z,38.53
2022-11-05T14:21:51.730Z,41.70
2022-11-05T14:24:43.223Z,35.28
2022-11-05T14:27:10.475Z,38.17
2022-11-05T14:29:42.261Z,40.45
2022-11-05T14:32:18.756Z,43.83
2022-11-05T14:34:47.139Z,48.63
2022-11-05T14:37:13.778Z,45.95
2022-11-05T14:39:40.632Z,50.22
2022-11-05T14:42:23.581Z,53.03
2022-11-05T14:45:01.339Z,49.10
2022-11-05T14:47:37.471Z,57.90
2022-11-05T14:50:24.266Z,51.30
2022-11-05T14:53:08.108Z,56.72
2022-11-05T14:55:37.708Z,53.20
2022-11-05T14:58:26.518Z,49.83
2022-11-05T15:00:53.899Z,50.47
2022-11-05T15:03:45.495Z,48.40
2022-11-05T15:06:29.847Z,51.50
2022-11-05T15:09:08.545Z,51.95
2022-11-05T15:11:41.277Z,57.33
2022-11-05T15:14:17.433Z,47.40
2022-11-05T15:16:49.715Z,55.13
2022-11-05T15:19:29.756Z,62.75
2022-11-05T15:21:58.176Z,54.08
2022-11-05T15:24:28.212Z,51.78
2022-11-05T15:27:34.565Z,51.70
2022-11-05T15:30:24.021Z,58.25
2022-11-05T15:32:51.529Z,56.35
2022-11-05T15:35:27.799Z,54.63
2022-11-05T15:38:01.740Z,51.80
2022-11-05T15:40:31.408Z,60.50
2022-11-05T15:43:17.368Z,61.10
2022-11-05T15:45:44.540Z,55.22
2022-11-05T15:48:15.994Z,57.63
2022-11-05T15:50:42.687Z,67.05
2022-11-05T15:53:47.399Z,59.38
2022-11-05T15:56:40.304Z,59.33
2022-11-05T15:59:17.602Z,61.28
2022-11-05T16:01:50.201Z,67.97
2022-11-05T16:04:29.188Z,71.20
2022-11-05T16:06:58.555Z,64.95
2022-11-05T16:09:30.935Z,62.97
2022-11-05T16:12:36.604Z,80.03
2022-11-05T16:15:09.152Z,77.80
2022-11-05T16:17:53.798Z,69.20
2022-11-05T16:20:30.315Z,85.07
2022-11-05T16:22:59.701Z,83.78
2022-11-05T16:25:29.970Z,85.68
2022-11-05T16:27:58.105Z,94.63
2022-11-05T16:30:25.553Z,82.03
2022-11-05T16:32:52.403Z,89.78
2022-11-05T16:35:26.264Z,97.40
2022-11-05T16:37:52.891Z,67.85
2022-11-05T16:40:24.378Z,92.22
2022-11-05T16:42:52.483Z,90.15
2022-11-05T16:45:22.064Z,92.32
2022-11-05T16:47:49.113Z,118.35
2022-11-05T16:50:17.840Z,102.80
2022-11-05T16:52:45.977Z,110.05
2022-11-05T16:55:13.911Z,91.97
2022-11-05T16:57:42.729Z,129.38
2022-11-05T17:00:13.444Z,116.47
2022-11-05T17:02:40.282Z,152.32
2022-11-05T17:05:13.058Z,106.82
2022-11-05T17:07:41.517Z,99.70
2022-11-05T17:10:08.335Z,115.00
2022-11-05T17:12:35.882Z,120.68
2022-11-05T17:15:02.508Z,79.50
2022-11-05T17:17:29.263Z,120.82
2022-11-05T17:19:55.876Z,140.68
2022-11-05T17:22:22.501Z,114.07
2022-11-05T17:24:49.113Z,127.22
2022-11-05T17:27:15.757Z,131.65
2022-11-05T17:29:42.345Z,113.47
2022-11-05T17:32:08.950Z,126.18
2022-11-05T17:34:35.629Z,121.30
2022-11-05T17:37:02.237Z,92.40
2022-11-05T17:39:31.898Z,113.43
2022-11-05T17:41:58.766Z,107.10
2022-11-05T17:44:25.762Z,74.85
2022-11-05T17:46:52.429Z,101.40
2022-11-05T17:49:19.048Z,99.50
2022-11-05T17:51:45.712Z,102.63
2022-11-05T17:54:12.365Z,99.38
2022-11-05T17:56:44.593Z,79.40
2022-11-05T17:59:11.361Z,89.20
2022-11-05T18:01:43.373Z,98.10
2022-11-05T18:04:10.437Z,83.60
2022-11-05T18:06:38.274Z,95.50
2022-11-05T18:09:06.357Z,111.82
2022-11-05T18:11:33.982Z,101.03
2022-11-05T18:14:00.657Z,86.20
2022-11-05T18:16:27.325Z,90.90
2022-11-05T18:18:53.906Z,96.18
2022-11-05T18:21:20.496Z,90.70
2022-11-05T18:23:47.114Z,99.93
2022-11-05T18:26:15.972Z,92.43
2022-11-05T18:28:43.575Z,69.60
2022-11-05T18:31:20.583Z,88.60
2022-11-05T18:33:50.781Z,94.05
2022-11-05T18:36:28.298Z,91.13
2022-11-05T18:38:57.153Z,67.75
2022-11-05T18:41:24.105Z,90.32
2022-11-05T18:43:51.418Z,85.93
2022-11-05T18:46:43.101Z,90.65
2022-11-05T18:49:05.721Z,82.60
2022-11-05T18:51:32.783Z,86.25
2022-11-05T18:54:00.649Z,92.88
2022-11-05T18:56:27.303Z,92.13
2022-11-05T18:59:14.553Z,80.43
2022-11-05T19:01:41.220Z,94.95
2022-11-05T19:04:07.979Z,91.55
2022-11-05T19:06:35.458Z,94.53
2022-11-05T19:09:02.450Z,86.22
2022-11-05T21:55:09.115Z,99.70
2022-11-05T21:57:54.258Z,99.68
2022-11-05T22:00:20.943Z,90.55
2022-11-05T22:02:47.672Z,96.28
2022-11-05T22:05:14.730Z,95.70
2022-11-05T22:07:41.442Z,97.80
2022-11-05T22:10:15.783Z,109.60
2022-11-05T22:12:43.737Z,98.93
2022-11-05T22:15:10.781Z,96.70
2022-11-05T22:17:38.359Z,104.20
2022-11-05T22:20:08.444Z,96.38
2022-11-05T22:22:35.147Z,91.28
2022-11-05T22:25:01.751Z,108.63
2022-11-05T22:27:28.346Z,97.18
2022-11-05T22:29:55.007Z,99.55
2022-11-05T22:32:21.594Z,98.28
2022-11-05T22:34:48.897Z,95.18
2022-11-05T22:37:15.511Z,101.68
2022-11-05T22:39:42.143Z,106.50
2022-11-05T22:42:09.092Z,84.35
2022-11-05T22:44:36.561Z,111.13
2022-11-05T22:47:03.212Z,95.07
2022-11-05T22:49:29.878Z,88.75
2022-11-05T22:51:56.504Z,86.78
2022-11-05T22:54:23.162Z,97.75
2022-11-05T22:56:50.399Z,84.85
2022-11-05T22:59:17.031Z,96.50
2022-11-05T23:01:45.151Z,84.85
2022-11-05T23:04:13.276Z,90.65
2022-11-05T23:06:58.694Z,86.32
2022-11-05T23:09:47.050Z,90.80
2022-11-05T23:12:29.881Z,69.05
2022-11-05T23:14:58.248Z,84.80
2022-11-05T23:17:43.640Z,80.20
2022-11-05T23:20:38.517Z,84.43
2022-11-05T23:23:28.144Z,81.93
2022-11-05T23:25:58.805Z,83.53
2022-11-05T23:28:25.912Z,90.07
2022-11-05T23:31:11.114Z,79.25
2022-11-05T23:33:37.751Z,90.47
2022-11-05T23:36:22.762Z,90.53
2022-11-05T23:38:49.412Z,88.25
2022-11-05T23:41:34.623Z,83.00
2022-11-05T23:44:19.746Z,77.45
2022-11-05T23:47:04.949Z,75.40
2022-11-05T23:49:31.660Z,78.13
2022-11-05T23:51:58.272Z,82.80
2022-11-05T23:54:24.925Z,87.75
2022-11-05T23:56:51.516Z,84.32
2022-11-05T23:59:18.108Z,88.53
